SBOSBO STN / EGSS
Speedbird OnlineSpeedbird Online STN / EGSS

London Stansted Airport
20:44 12.7°C

Location London, United Kingdom
Latitude: 51.8849983215
Longitude: 0.234999999404
Web Airport Website | Wikipedia
Altitude 106 Meter / 348 Feet
Distance 42 KM / 26 Miles
from London.
Time Zone UTC +1 hours (Europe/London)
Codes IATA: STN
ICAO: EGSS
Runways
RunwayLength (m)Surface
043049Asphalt
223049Asphalt
Radio
TypeDescriptionFrequency
APPEssex Radar120.625
ATISATIS127.175
CLDCLNC DEL121.95
DIRDIRECTOR136.2
GNDGND121.725
RDRDirector136.2
TWRTWR123.8
Live ATC
METAR EGSS 241920Z AUTO 36006KT 9999 NCD 12/10 Q1019
TAF TAF EGSS 241703Z 2418/2524 01008KT 9999 FEW035 PROB30 2502/2508 8000 BKN006 BECMG 2521/2524 25010KT PROB40 TEMPO 2523/2524 7000 RA
Weather As Of 24 Sep 2022 20:44
Description Few clouds
Wind 11 km/h from North (360°)
Cloud Cover 23%
Precipitation Rain: none, Snow: none
Sunrise 06:48
Sunset 18:54
Rotations During the last 90 days there were
3 flights from GVA
3 flights from NCE
1 flights from NCL
1 flights from JMK
1 flights from SPU
1 flights from AGP
1 flights from PRG
1 flights from EDI
18 flights to LCY
2 flights to LHR
1 flights to LGW
1 flights to EDI


© 2017-2022 Speedbird Online